createdAt,value
2022-10-22T00:00:31.450Z,81.15
2022-10-22T00:02:58.106Z,81.33
2022-10-22T00:05:24.826Z,81.67
2022-10-22T00:07:51.533Z,81.79
2022-10-22T00:10:19.057Z,81.92
2022-10-22T00:12:45.695Z,82.14
2022-10-22T00:15:12.568Z,82.54
2022-10-22T00:17:39.445Z,82.85
2022-10-22T00:20:06.885Z,83.21
2022-10-22T00:22:33.559Z,83.39
2022-10-22T00:25:01.263Z,83.39
2022-10-22T00:27:27.897Z,83.75
2022-10-22T00:29:54.491Z,83.65
2022-10-22T00:32:21.231Z,83.63
2022-10-22T00:34:47.916Z,83.75
2022-10-22T00:37:14.677Z,83.36
2022-10-22T00:39:41.295Z,83.20
2022-10-22T00:42:08.324Z,83.29
2022-10-22T00:45:16.221Z,83.07
2022-10-22T00:47:49.150Z,82.91
2022-10-22T00:50:36.867Z,82.75
2022-10-22T00:53:13.159Z,83.00
2022-10-22T00:55:42.196Z,82.96
2022-10-22T00:58:09.392Z,83.14
2022-10-22T01:00:36.077Z,83.23
2022-10-22T01:03:04.647Z,83.66
2022-10-22T01:05:39.467Z,83.47
2022-10-22T01:11:06.929Z,83.69
2022-10-22T01:13:45.936Z,83.71
2022-10-22T01:16:22.407Z,83.90
2022-10-22T01:19:08.055Z,83.96
2022-10-22T01:21:53.156Z,84.08
2022-10-22T01:24:51.873Z,83.73
2022-10-22T01:27:29.119Z,83.90
2022-10-22T01:29:58.699Z,83.75
2022-10-22T01:32:27.108Z,84.45
2022-10-22T01:35:01.803Z,84.24
2022-10-22T01:37:31.670Z,84.01
2022-10-22T01:40:00.468Z,84.37
2022-10-22T01:42:27.152Z,84.23
2022-10-22T01:44:53.725Z,84.44
2022-10-22T01:47:43.220Z,84.72
2022-10-22T01:50:25.348Z,84.31
2022-10-22T01:53:30.609Z,84.36
2022-10-22T01:56:30.369Z,84.42
2022-10-22T01:59:15.306Z,84.40
2022-10-22T02:01:59.177Z,84.18
2022-10-22T02:04:51.829Z,84.36
2022-10-22T02:07:23.023Z,84.42
2022-10-22T02:09:53.806Z,84.56
2022-10-22T02:12:22.134Z,84.55
2022-10-22T02:14:50.748Z,84.43
2022-10-22T02:17:21.555Z,84.47
2022-10-22T02:19:53.538Z,84.51
2022-10-22T02:22:20.660Z,84.24
2022-10-22T02:24:48.776Z,84.55
2022-10-22T02:27:27.989Z,84.38
2022-10-22T02:30:03.567Z,84.55
2022-10-22T02:32:42.456Z,84.49
2022-10-22T02:35:13.294Z,84.65
2022-10-22T02:37:41.307Z,84.85
2022-10-22T02:40:09.197Z,84.89
2022-10-22T02:42:37.959Z,85.08
2022-10-22T02:45:05.827Z,85.04
2022-10-22T02:47:32.724Z,84.97
2022-10-22T02:49:59.288Z,85.35
2022-10-22T02:52:25.940Z,85.43
2022-10-22T02:54:52.534Z,85.17
2022-10-22T02:59:45.663Z,85.52
2022-10-22T03:02:12.276Z,85.34
2022-10-22T03:04:38.874Z,85.74
2022-10-22T03:07:05.551Z,85.65
2022-10-22T03:09:32.213Z,85.87
2022-10-22T03:11:58.805Z,85.46
2022-10-22T03:14:25.502Z,85.51
2022-10-22T03:16:52.063Z,85.51
2022-10-22T03:19:18.724Z,85.65
2022-10-22T03:21:59.537Z,85.65
2022-10-22T03:24:42.616Z,85.89
2022-10-22T03:27:11.588Z,85.77
2022-10-22T03:29:40.268Z,85.81
2022-10-22T03:32:07.072Z,85.78
2022-10-22T03:34:33.769Z,85.88
2022-10-22T03:37:01.639Z,86.17
2022-10-22T03:39:30.993Z,86.36
2022-10-22T03:41:57.933Z,86.22
2022-10-22T03:44:25.007Z,86.40
2022-10-22T03:46:51.692Z,86.66
2022-10-22T03:49:18.291Z,86.62
2022-10-22T03:51:45.240Z,86.50
2022-10-22T03:54:11.982Z,86.61
2022-10-22T03:56:38.724Z,86.79
2022-10-22T03:59:05.912Z,86.73
2022-10-22T04:01:32.689Z,86.68
2022-10-22T04:03:59.684Z,86.75
2022-10-22T04:06:26.574Z,86.86
2022-10-22T04:08:53.233Z,86.80
2022-10-22T04:11:19.846Z,86.91
2022-10-22T04:13:46.399Z,86.98
2022-10-22T04:16:18.448Z,87.10
2022-10-22T04:18:46.376Z,86.88
2022-10-22T04:21:14.470Z,87.30
2022-10-22T04:23:48.757Z,87.05
2022-10-22T04:26:16.483Z,86.84
2022-10-22T04:28:46.146Z,86.79
2022-10-22T04:31:15.182Z,86.74
2022-10-22T04:33:43.357Z,86.43
2022-10-22T04:36:11.989Z,86.08
2022-10-22T04:38:39.471Z,85.79
2022-10-22T04:41:16.864Z,85.83
2022-10-22T04:43:44.517Z,85.38
2022-10-22T04:46:12.676Z,85.29
2022-10-22T04:48:41.418Z,85.51
2022-10-22T04:51:11.191Z,84.96
2022-10-22T04:53:38.176Z,85.07
2022-10-22T04:56:20.599Z,84.94
2022-10-22T04:58:55.102Z,85.26
2022-10-22T05:01:24.488Z,84.78
2022-10-22T05:03:53.840Z,84.86
2022-10-22T05:06:21.206Z,84.49
2022-10-22T05:08:52.102Z,84.17
2022-10-22T05:11:21.721Z,84.01
2022-10-22T05:13:48.611Z,83.96
2022-10-22T05:16:15.509Z,84.40
2022-10-22T05:18:44.160Z,84.69
2022-10-22T05:21:14.722Z,84.64
2022-10-22T05:23:44.647Z,84.80
2022-10-22T05:26:12.967Z,85.10
2022-10-22T05:28:40.442Z,85.51
2022-10-22T05:31:08.844Z,86.03
2022-10-22T05:33:35.865Z,85.96
2022-10-22T05:36:04.522Z,86.44
2022-10-22T05:38:32.681Z,86.15
2022-10-22T05:41:07.723Z,86.21
2022-10-22T05:43:35.241Z,85.93
2022-10-22T05:46:07.656Z,85.82
2022-10-22T05:48:34.463Z,86.46
2022-10-22T05:51:11.398Z,86.42
2022-10-22T05:53:41.089Z,85.61
2022-10-22T05:56:11.896Z,85.53
2022-10-22T05:58:38.562Z,84.98
2022-10-22T06:01:12.599Z,84.57
2022-10-22T06:03:39.212Z,84.17
2022-10-22T06:06:18.684Z,83.79
2022-10-22T06:08:47.490Z,83.59
2022-10-22T06:11:14.311Z,83.11
2022-10-22T06:13:41.038Z,82.90
2022-10-22T06:16:08.986Z,82.17
2022-10-22T06:18:35.712Z,81.63
2022-10-22T06:21:10.871Z,81.03
2022-10-22T06:23:38.587Z,80.78
2022-10-22T06:26:06.173Z,79.99
2022-10-22T06:28:33.024Z,79.26
2022-10-22T06:31:01.526Z,78.93
2022-10-22T06:33:29.854Z,78.42
2022-10-22T06:36:06.756Z,77.77
2022-10-22T06:38:34.414Z,77.15
2022-10-22T06:41:06.753Z,76.85
2022-10-22T06:43:33.516Z,76.02
2022-10-22T06:46:02.467Z,75.12
2022-10-22T06:48:29.173Z,75.43
2022-10-22T06:50:56.308Z,73.81
2022-10-22T06:53:22.873Z,73.82
2022-10-22T06:55:49.505Z,73.41
2022-10-22T06:58:16.252Z,72.91
2022-10-22T07:00:42.865Z,71.91
2022-10-22T07:03:13.846Z,72.34
2022-10-22T07:05:43.376Z,70.98
2022-10-22T07:08:11.280Z,70.68
2022-10-22T07:10:41.596Z,70.47
2022-10-22T07:13:17.296Z,70.01
2022-10-22T07:15:45.309Z,69.42
2022-10-22T07:18:14.580Z,68.94
2022-10-22T07:20:41.208Z,67.56
2022-10-22T07:23:07.846Z,66.93
2022-10-22T07:25:35.578Z,65.77
2022-10-22T07:28:02.158Z,64.79
2022-10-22T07:30:28.908Z,63.61
2022-10-22T07:32:55.496Z,61.80
2022-10-22T07:35:22.052Z,60.92
2022-10-22T07:37:48.744Z,60.25
2022-10-22T07:40:15.352Z,58.78
2022-10-22T07:42:41.977Z,59.01
2022-10-22T07:45:09.347Z,58.99
2022-10-22T07:47:36.144Z,57.81
2022-10-22T07:50:04.234Z,56.99
2022-10-22T07:52:31.162Z,56.68
2022-10-22T07:54:57.766Z,56.69
2022-10-22T07:57:24.486Z,56.29
2022-10-22T07:59:51.184Z,55.56
2022-10-22T08:02:18.023Z,55.77
2022-10-22T08:04:44.662Z,54.35
2022-10-22T08:07:11.253Z,53.46
2022-10-22T08:09:37.917Z,53.13
2022-10-22T08:12:04.909Z,54.84
2022-10-22T08:14:31.552Z,54.33
2022-10-22T08:16:58.227Z,54.11
2022-10-22T08:19:25.151Z,53.99
2022-10-22T08:21:51.739Z,52.09
2022-10-22T08:24:18.324Z,49.98
2022-10-22T08:26:45.159Z,50.19
2022-10-22T08:29:11.775Z,50.65
2022-10-22T08:31:38.335Z,51.64
2022-10-22T08:34:05.688Z,51.67
2022-10-22T08:36:32.282Z,51.67
2022-10-22T08:38:58.882Z,52.51
2022-10-22T08:41:26.250Z,52.56
2022-10-22T08:43:58.529Z,52.79
2022-10-22T08:46:34.098Z,54.09
2022-10-22T08:49:03.123Z,54.99
2022-10-22T08:51:40.494Z,55.90
2022-10-22T08:54:13.289Z,56.12
2022-10-22T08:56:45.098Z,54.86
2022-10-22T08:59:17.439Z,53.62
2022-10-22T09:01:48.010Z,52.06
2022-10-22T09:04:30.967Z,50.94
2022-10-22T09:06:59.402Z,51.25
2022-10-22T09:09:39.696Z,52.31
2022-10-22T09:12:07.254Z,52.58
2022-10-22T09:14:34.025Z,52.98
2022-10-22T09:17:41.209Z,51.41
2022-10-22T09:20:17.168Z,50.72
2022-10-22T09:23:00.899Z,48.87
2022-10-22T09:25:30.886Z,47.42
2022-10-22T09:28:03.714Z,46.66
2022-10-22T09:30:35.188Z,47.02
2022-10-22T09:33:07.838Z,46.58
2022-10-22T09:35:43.731Z,46.82
2022-10-22T09:38:14.188Z,47.12
2022-10-22T09:40:51.973Z,48.07
2022-10-22T09:43:19.142Z,47.50
2022-10-22T09:45:47.895Z,46.11
2022-10-22T09:48:14.611Z,46.89
2022-10-22T09:50:49.795Z,46.66
2022-10-22T09:53:27.102Z,45.78
2022-10-22T09:55:59.807Z,46.45
2022-10-22T09:58:27.393Z,47.25
2022-10-22T10:00:59.338Z,47.11
2022-10-22T10:03:31.555Z,47.75
2022-10-22T10:06:04.709Z,48.73
2022-10-22T10:08:33.009Z,48.52
2022-10-22T10:11:06.301Z,49.73
2022-10-22T10:13:54.230Z,51.26
2022-10-22T10:16:38.864Z,51.17
2022-10-22T10:19:50.443Z,52.30
2022-10-22T10:22:27.620Z,53.59
2022-10-22T10:25:03.191Z,54.19
2022-10-22T10:27:43.475Z,55.18
2022-10-22T10:30:12.875Z,55.27
2022-10-22T10:32:55.433Z,55.48
2022-10-22T10:35:28.224Z,55.11
2022-10-22T10:38:03.946Z,55.36
2022-10-22T10:40:58.628Z,55.49
2022-10-22T10:43:37.042Z,55.45
2022-10-22T10:46:09.561Z,56.08
2022-10-22T10:48:45.435Z,56.30
2022-10-22T10:51:27.070Z,56.99
2022-10-22T10:54:18.040Z,57.43
2022-10-22T10:56:55.777Z,57.37
2022-10-22T10:59:50.626Z,57.93
2022-10-22T11:02:54.438Z,57.64
2022-10-22T11:05:30.765Z,57.56
2022-10-22T11:08:06.620Z,57.71
2022-10-22T11:10:38.978Z,58.15
2022-10-22T11:13:17.059Z,57.14
2022-10-22T11:15:48.730Z,57.71
2022-10-22T11:18:25.907Z,56.93
2022-10-22T11:21:13.904Z,56.85
2022-10-22T11:24:09.975Z,55.45
2022-10-22T11:26:51.781Z,55.55
2022-10-22T11:29:21.895Z,54.21
2022-10-22T11:31:49.788Z,53.78
2022-10-22T11:34:33.295Z,53.44
2022-10-22T11:37:02.057Z,53.39
2022-10-22T11:39:34.392Z,53.13
2022-10-22T11:42:11.562Z,52.61
2022-10-22T11:45:28.691Z,51.07
2022-10-22T11:48:10.451Z,49.56
2022-10-22T11:50:49.066Z,48.19
2022-10-22T11:53:15.603Z,47.27
2022-10-22T11:55:56.672Z,46.36
2022-10-22T11:58:32.245Z,44.57
2022-10-22T12:01:01.460Z,42.86
2022-10-22T12:03:33.788Z,43.33
2022-10-22T12:06:12.184Z,43.60
2022-10-22T12:09:05.948Z,42.83
2022-10-22T12:11:39.803Z,41.23
2022-10-22T12:14:29.616Z,42.43
2022-10-22T12:16:59.271Z,43.93
2022-10-22T12:19:41.781Z,43.76
2022-10-22T12:22:17.051Z,45.22
2022-10-22T12:24:50.166Z,44.88
2022-10-22T12:27:28.071Z,45.12
2022-10-22T12:29:57.416Z,45.22
2022-10-22T12:32:33.106Z,44.85
2022-10-22T12:35:09.040Z,45.07
2022-10-22T12:37:37.182Z,43.68
2022-10-22T12:40:28.296Z,41.22
2022-10-22T12:42:58.256Z,40.56
2022-10-22T12:45:31.014Z,40.69
2022-10-22T12:48:00.809Z,40.51
2022-10-22T12:50:42.065Z,40.97
2022-10-22T12:53:22.635Z,42.21
2022-10-22T12:55:52.303Z,42.57
2022-10-22T12:58:28.102Z,43.19
2022-10-22T13:01:03.309Z,43.88
2022-10-22T13:03:35.193Z,43.68
2022-10-22T13:06:21.236Z,43.95
2022-10-22T13:08:59.273Z,42.76
2022-10-22T13:11:41.530Z,42.46
2022-10-22T13:14:26.852Z,43.10
2022-10-22T13:17:41.771Z,43.72
2022-10-22T13:20:21.053Z,44.54
2022-10-22T13:23:00.492Z,44.71
2022-10-22T13:25:29.257Z,45.40
2022-10-22T13:27:57.580Z,45.86
2022-10-22T13:30:35.872Z,45.94
2022-10-22T13:33:18.228Z,46.10
2022-10-22T13:35:44.974Z,46.01
2022-10-22T13:38:18.442Z,45.13
2022-10-22T13:40:45.307Z,45.64
2022-10-22T13:43:11.909Z,45.36
2022-10-22T13:45:38.858Z,44.77
2022-10-22T13:48:05.867Z,44.93
2022-10-22T13:50:32.794Z,45.99
2022-10-22T13:52:59.479Z,46.34
2022-10-22T13:55:29.559Z,46.46
2022-10-22T13:58:19.888Z,47.78
2022-10-22T14:00:50.104Z,47.17
2022-10-22T14:03:20.761Z,47.81
2022-10-22T14:05:48.415Z,47.47
2022-10-22T14:08:20.544Z,47.41
2022-10-22T14:10:47.229Z,47.04
2022-10-22T14:13:16.354Z,46.63
2022-10-22T14:15:45.299Z,46.34
2022-10-22T14:18:17.096Z,45.28
2022-10-22T14:20:44.401Z,44.80
2022-10-22T14:23:54.331Z,43.39
2022-10-22T14:26:28.284Z,43.07
2022-10-22T14:29:11.284Z,44.55
2022-10-22T14:31:44.415Z,44.67
2022-10-22T14:34:13.097Z,43.32
2022-10-22T14:36:39.727Z,42.81
2022-10-22T14:39:06.387Z,44.04
2022-10-22T14:41:33.218Z,44.26
2022-10-22T14:44:00.156Z,45.55
2022-10-22T14:46:26.796Z,46.20
2022-10-22T14:48:53.367Z,47.09
2022-10-22T14:51:21.475Z,47.96
2022-10-22T14:53:48.715Z,48.83
2022-10-22T14:56:18.426Z,49.49
2022-10-22T14:58:45.826Z,49.68
2022-10-22T15:01:13.211Z,48.00
2022-10-22T15:03:40.066Z,49.06
2022-10-22T15:06:07.147Z,50.99
2022-10-22T15:08:34.248Z,52.67
2022-10-22T15:11:06.323Z,54.63
2022-10-22T15:13:34.259Z,55.51
2022-10-22T15:16:01.534Z,56.18
2022-10-22T15:18:28.769Z,57.46
2022-10-22T15:21:03.616Z,58.51
2022-10-22T15:23:30.948Z,58.93
2022-10-22T15:25:58.011Z,59.76
2022-10-22T15:28:25.605Z,59.89
2022-10-22T15:30:54.367Z,60.91
2022-10-22T15:33:23.208Z,61.04
2022-10-22T15:35:49.914Z,61.82
2022-10-22T15:38:17.062Z,62.38
2022-10-22T15:40:44.070Z,62.83
2022-10-22T15:43:11.374Z,63.52
2022-10-22T15:45:39.538Z,63.81
2022-10-22T15:48:06.271Z,64.40
2022-10-22T15:50:37.066Z,65.40
2022-10-22T15:53:03.671Z,65.69
2022-10-22T15:55:30.316Z,66.73
2022-10-22T15:57:59.217Z,66.88
2022-10-22T16:00:28.705Z,67.49
2022-10-22T16:02:55.425Z,67.01
2022-10-22T16:05:22.036Z,66.73
2022-10-22T16:07:48.703Z,67.03
2022-10-22T16:10:15.421Z,67.09
2022-10-22T16:12:42.735Z,67.59
2022-10-22T16:15:10.269Z,68.92
2022-10-22T16:17:36.887Z,69.94
2022-10-22T16:20:04.136Z,71.79
2022-10-22T16:22:30.943Z,71.86
2022-10-22T16:24:57.487Z,72.72
2022-10-22T16:27:24.114Z,72.56
2022-10-22T16:29:50.799Z,71.11
2022-10-22T16:32:17.935Z,71.63
2022-10-22T16:34:44.505Z,73.81
2022-10-22T16:37:11.173Z,74.82
2022-10-22T16:39:38.192Z,76.00
2022-10-22T16:42:04.927Z,75.87
2022-10-22T16:44:31.508Z,77.45
2022-10-22T16:46:58.273Z,78.53
2022-10-22T16:49:24.947Z,79.11
2022-10-22T16:51:54.538Z,79.21
2022-10-22T16:54:21.983Z,78.05
2022-10-22T16:56:48.733Z,77.26
2022-10-22T16:59:15.318Z,77.15
2022-10-22T17:01:42.012Z,76.82
2022-10-22T17:04:09.367Z,76.68
2022-10-22T17:06:36.191Z,76.40
2022-10-22T17:09:03.253Z,75.69
2022-10-22T17:11:34.810Z,74.95
2022-10-22T17:14:02.695Z,74.21
2022-10-22T17:16:29.745Z,80.22
2022-10-22T17:18:56.648Z,83.41
2022-10-22T17:21:24.153Z,84.23
2022-10-22T17:23:56.555Z,86.09
2022-10-22T17:26:23.897Z,86.26
2022-10-22T17:28:51.167Z,87.90
2022-10-22T17:31:27.906Z,86.47
2022-10-22T17:33:56.967Z,84.74
2022-10-22T17:36:25.064Z,83.01
2022-10-22T17:38:54.437Z,83.80
2022-10-22T17:41:30.191Z,84.50
2022-10-22T17:43:59.444Z,84.23
2022-10-22T17:46:28.296Z,84.73
2022-10-22T17:49:04.026Z,84.66
2022-10-22T17:51:31.854Z,86.08
2022-10-22T17:53:58.579Z,86.34
2022-10-22T17:56:27.994Z,87.42
2022-10-22T17:58:55.435Z,87.79
2022-10-22T18:01:31.338Z,87.58
2022-10-22T18:04:03.990Z,87.74
2022-10-22T18:06:31.827Z,87.92
2022-10-22T18:08:58.584Z,87.24
2022-10-22T18:11:27.779Z,88.61
2022-10-22T18:13:57.134Z,88.09
2022-10-22T18:16:24.831Z,89.20
2022-10-22T18:18:54.021Z,90.39
2022-10-22T18:21:22.265Z,90.72
2022-10-22T18:23:49.106Z,90.39
2022-10-22T18:26:17.932Z,88.15
2022-10-22T18:28:46.174Z,88.89
2022-10-22T18:31:17.513Z,89.28
2022-10-22T18:33:44.412Z,88.09
2022-10-22T18:36:14.588Z,88.38
2022-10-22T18:38:41.339Z,88.69
2022-10-22T18:41:10.017Z,90.72
2022-10-22T18:43:36.979Z,90.98
2022-10-22T18:46:06.885Z,91.97
2022-10-22T18:48:34.756Z,91.36
2022-10-22T18:51:04.364Z,92.61
2022-10-22T18:53:31.190Z,92.95
2022-10-22T18:55:57.831Z,94.94
2022-10-22T18:58:24.560Z,97.48
2022-10-22T19:00:51.508Z,97.87
2022-10-22T19:03:18.256Z,97.88
2022-10-22T19:05:50.412Z,98.78
2022-10-22T19:08:17.852Z,97.11
2022-10-22T19:10:48.251Z,97.24
2022-10-22T19:13:17.774Z,96.78
2022-10-22T19:15:44.726Z,96.94
2022-10-22T19:18:12.910Z,97.75
2022-10-22T19:20:39.903Z,98.18
2022-10-22T19:23:07.498Z,93.71
2022-10-22T19:25:34.853Z,90.64
2022-10-22T19:28:01.534Z,89.80
2022-10-22T19:30:28.126Z,88.82
2022-10-22T19:32:54.754Z,87.37
2022-10-22T19:35:21.454Z,87.56
2022-10-22T19:37:48.708Z,87.00
2022-10-22T19:40:15.640Z,87.06
2022-10-22T19:42:44.529Z,87.17
2022-10-22T19:45:11.463Z,87.90
2022-10-22T19:47:38.070Z,89.21
2022-10-22T19:50:05.705Z,90.51
2022-10-22T19:52:33.301Z,92.10
2022-10-22T19:54:59.913Z,93.00
2022-10-22T19:57:26.487Z,94.70
2022-10-22T19:59:53.134Z,95.68
2022-10-22T20:02:19.856Z,96.83
2022-10-22T20:04:50.015Z,97.52
2022-10-22T20:07:16.932Z,98.79
2022-10-22T20:09:43.631Z,100.00
2022-10-22T20:12:10.406Z,100.00
2022-10-22T20:14:37.621Z,100.00
2022-10-22T20:17:04.436Z,100.00
2022-10-22T20:19:31.295Z,100.00
2022-10-22T20:24:29.809Z,100.00
2022-10-22T20:26:56.455Z,100.00
2022-10-22T20:29:23.058Z,100.00
2022-10-22T20:31:50.551Z,100.00
2022-10-22T20:34:17.470Z,100.00
2022-10-22T20:36:44.059Z,100.00
2022-10-22T20:39:13.236Z,100.00
2022-10-22T20:41:41.088Z,100.00
2022-10-22T20:44:12.901Z,100.00
2022-10-22T20:46:39.484Z,100.00
2022-10-22T20:49:12.821Z,100.00
2022-10-22T20:51:39.498Z,100.00
2022-10-22T20:54:07.750Z,100.00
2022-10-22T20:56:39.270Z,100.00
2022-10-22T20:59:08.391Z,100.00
2022-10-22T21:01:46.348Z,100.00
2022-10-22T21:04:13.168Z,100.00
2022-10-22T21:06:41.465Z,100.00
2022-10-22T21:09:10.131Z,100.00
2022-10-22T21:11:37.995Z,100.00
2022-10-22T21:14:06.228Z,100.00
2022-10-22T21:16:33.442Z,100.00
2022-10-22T21:19:00.038Z,100.00
2022-10-22T21:21:27.323Z,100.00
2022-10-22T21:23:54.366Z,100.00
2022-10-22T21:26:21.508Z,100.00
2022-10-22T21:28:48.402Z,100.00
2022-10-22T21:31:22.036Z,100.00
2022-10-22T21:33:50.049Z,100.00
2022-10-22T21:36:20.296Z,100.00
2022-10-22T21:38:49.674Z,100.00
2022-10-22T21:41:19.041Z,100.00
2022-10-22T21:43:46.099Z,100.00
2022-10-22T21:46:24.052Z,100.00
2022-10-22T21:49:01.203Z,100.00
2022-10-22T21:51:29.327Z,100.00
2022-10-22T21:53:55.979Z,100.00
2022-10-22T21:56:26.463Z,100.00
2022-10-22T21:58:53.688Z,100.00
2022-10-22T22:01:21.098Z,100.00
2022-10-22T22:03:49.735Z,100.00
2022-10-22T22:06:21.254Z,100.00
2022-10-22T22:08:49.181Z,100.00
2022-10-22T22:11:18.186Z,100.00
2022-10-22T22:13:45.262Z,100.00
2022-10-22T22:16:15.123Z,100.00
2022-10-22T22:18:42.374Z,100.00
2022-10-22T22:21:13.122Z,100.00
2022-10-22T22:23:42.781Z,100.00
2022-10-22T22:26:12.231Z,100.00
2022-10-22T22:28:39.155Z,100.00
2022-10-22T22:31:16.763Z,100.00
2022-10-22T22:33:44.217Z,100.00
2022-10-22T22:36:11.869Z,100.00
2022-10-22T22:38:39.164Z,100.00
2022-10-22T22:41:06.839Z,100.00
2022-10-22T22:43:34.245Z,100.00
2022-10-22T22:46:05.304Z,100.00
2022-10-22T22:48:32.845Z,100.00
2022-10-22T22:51:02.295Z,100.00
2022-10-22T22:53:29.235Z,100.00
2022-10-22T22:56:11.058Z,100.00
2022-10-22T22:58:40.413Z,100.00
2022-10-22T23:01:19.075Z,100.00
2022-10-22T23:03:48.658Z,100.00
2022-10-22T23:06:16.015Z,100.00
2022-10-22T23:08:43.246Z,100.00
2022-10-22T23:11:14.060Z,100.00
2022-10-22T23:13:43.067Z,100.00
2022-10-22T23:16:19.093Z,100.00
2022-10-22T23:18:47.718Z,100.00
2022-10-22T23:21:29.179Z,100.00
2022-10-22T23:24:17.037Z,100.00
2022-10-22T23:26:46.275Z,100.00
2022-10-22T23:29:25.272Z,100.00
2022-10-22T23:31:52.843Z,100.00
2022-10-22T23:34:21.909Z,100.00
2022-10-22T23:36:50.724Z,100.00
2022-10-22T23:39:21.856Z,100.00
2022-10-22T23:41:50.000Z,100.00
2022-10-22T23:44:17.773Z,100.00
2022-10-22T23:46:45.803Z,100.00
2022-10-22T23:49:14.022Z,100.00
2022-10-22T23:51:42.095Z,100.00
2022-10-22T23:54:14.875Z,100.00
2022-10-22T23:56:42.032Z,100.00
2022-10-22T23:59:10.337Z,100.00
